createdAt,value
2022-12-08T00:01:07.671Z,17.42
2022-12-08T00:03:35.055Z,16.27
2022-12-08T00:06:23.626Z,15.40
2022-12-08T00:09:08.497Z,21.50
2022-12-08T00:11:35.058Z,17.90
2022-12-08T00:14:01.900Z,14.75
2022-12-08T00:16:28.369Z,21.70
2022-12-08T00:18:54.912Z,21.27
2022-12-08T00:21:21.390Z,13.48
2022-12-08T00:23:47.862Z,16.33
2022-12-08T00:26:14.384Z,15.05
2022-12-08T00:28:40.820Z,19.38
2022-12-08T00:31:09.215Z,20.65
2022-12-08T00:33:36.127Z,18.10
2022-12-08T00:36:10.572Z,16.80
2022-12-08T00:38:37.550Z,19.50
2022-12-08T00:41:07.395Z,20.98
2022-12-08T00:43:33.827Z,18.33
2022-12-08T00:46:00.337Z,27.38
2022-12-08T00:48:26.868Z,19.42
2022-12-08T00:50:53.320Z,24.02
2022-12-08T00:53:19.794Z,19.63
2022-12-08T00:55:46.261Z,20.73
2022-12-08T00:58:12.867Z,16.90
2022-12-08T01:00:43.193Z,17.08
2022-12-08T01:03:10.988Z,16.70
2022-12-08T01:05:37.666Z,17.67
2022-12-08T01:08:08.645Z,18.08
2022-12-08T01:10:36.647Z,22.88
2022-12-08T01:13:03.995Z,20.60
2022-12-08T01:15:30.477Z,25.40
2022-12-08T01:17:56.977Z,18.40
2022-12-08T01:20:23.496Z,21.75
2022-12-08T01:22:50.012Z,18.08
2022-12-08T01:25:16.508Z,19.92
2022-12-08T01:27:42.961Z,14.30
2022-12-08T01:30:10.033Z,20.35
2022-12-08T01:32:36.878Z,18.45
2022-12-08T01:35:03.524Z,18.75
2022-12-08T01:37:30.106Z,20.50
2022-12-08T01:39:56.562Z,24.38
2022-12-08T01:42:23.560Z,18.40
2022-12-08T01:44:54.694Z,24.00
2022-12-08T01:47:22.950Z,28.80
2022-12-08T01:49:49.458Z,21.73
2022-12-08T01:52:29.095Z,24.88
2022-12-08T01:55:15.282Z,21.70
2022-12-08T01:57:47.101Z,21.98
2022-12-08T02:00:16.195Z,22.92
2022-12-08T02:02:54.834Z,25.17
2022-12-08T02:09:47.968Z,20.85
2022-12-08T02:12:15.175Z,23.60
2022-12-08T02:14:41.586Z,19.85
2022-12-08T02:17:47.788Z,19.40
2022-12-08T02:20:37.980Z,18.10
2022-12-08T02:23:41.279Z,22.10
2022-12-08T02:26:45.094Z,21.90
2022-12-08T02:29:20.575Z,18.73
2022-12-08T02:32:34.187Z,22.95
2022-12-08T02:35:14.483Z,24.23
2022-12-08T02:37:44.081Z,23.60
2022-12-08T02:40:21.976Z,20.05
2022-12-08T02:43:02.760Z,16.67
2022-12-08T02:45:38.981Z,26.13
2022-12-08T02:48:05.878Z,19.23
2022-12-08T02:50:32.320Z,17.63
2022-12-08T02:52:58.834Z,17.98
2022-12-08T02:55:30.706Z,17.98
2022-12-08T02:58:35.486Z,16.38
2022-12-08T03:01:29.111Z,15.95
2022-12-08T03:04:22.556Z,16.20
2022-12-08T03:06:58.866Z,22.83
2022-12-08T03:09:50.231Z,17.73
2022-12-08T03:12:32.829Z,18.52
2022-12-08T03:15:06.914Z,17.63
2022-12-08T03:17:33.880Z,15.57
2022-12-08T03:20:07.604Z,14.52
2022-12-08T03:22:34.288Z,14.65
2022-12-08T03:25:01.422Z,17.80
2022-12-08T03:27:31.410Z,16.65
2022-12-08T03:30:00.201Z,15.15
2022-12-08T03:32:30.095Z,14.05
2022-12-08T03:35:00.685Z,14.77
2022-12-08T03:37:28.408Z,15.63
2022-12-08T03:39:55.471Z,17.50
2022-12-08T03:42:22.177Z,18.38
2022-12-08T03:44:48.648Z,24.23
2022-12-08T03:47:15.190Z,23.10
2022-12-08T03:49:41.629Z,24.63
2022-12-08T03:52:08.098Z,24.10
2022-12-08T03:54:34.544Z,27.15
2022-12-08T03:57:01.020Z,23.95
2022-12-08T03:59:27.512Z,25.60
2022-12-08T04:01:54.045Z,30.75
2022-12-08T04:04:20.677Z,29.70
2022-12-08T04:06:47.419Z,28.63
2022-12-08T04:09:14.807Z,31.45
2022-12-08T04:11:41.448Z,32.53
2022-12-08T04:14:07.928Z,33.28
2022-12-08T04:16:34.419Z,32.25
2022-12-08T04:19:01.015Z,31.20
2022-12-08T04:21:27.858Z,30.48
2022-12-08T04:24:00.838Z,33.92
2022-12-08T04:26:28.162Z,31.25
2022-12-08T04:28:54.690Z,37.47
2022-12-08T04:31:21.265Z,36.88
2022-12-08T04:33:48.669Z,36.88
2022-12-08T04:36:15.243Z,33.45
2022-12-08T04:38:41.645Z,34.92
2022-12-08T04:41:08.109Z,34.25
2022-12-08T04:43:35.533Z,32.17
2022-12-08T04:46:02.055Z,36.65
2022-12-08T04:48:28.571Z,37.08
2022-12-08T04:50:55.063Z,36.30
2022-12-08T04:53:21.624Z,36.28
2022-12-08T04:55:49.638Z,32.63
2022-12-08T04:58:18.551Z,31.65
2022-12-08T05:00:45.870Z,36.22
2022-12-08T05:03:13.353Z,36.35
2022-12-08T05:05:40.094Z,37.35
2022-12-08T05:08:06.605Z,37.45
2022-12-08T05:10:33.350Z,36.38
2022-12-08T05:13:00.559Z,36.22
2022-12-08T05:15:27.369Z,42.67
2022-12-08T05:17:54.031Z,38.28
2022-12-08T05:20:20.500Z,35.50
2022-12-08T05:22:47.104Z,36.72
2022-12-08T05:25:13.715Z,44.95
2022-12-08T05:27:40.190Z,37.65
2022-12-08T05:30:07.438Z,39.92
2022-12-08T05:32:34.140Z,40.45
2022-12-08T05:35:00.578Z,39.75
2022-12-08T05:37:27.047Z,37.33
2022-12-08T05:39:53.492Z,46.22
2022-12-08T05:42:24.603Z,48.85
2022-12-08T05:44:51.469Z,43.70
2022-12-08T05:47:17.904Z,46.47
2022-12-08T05:49:44.929Z,46.35
2022-12-08T05:52:11.347Z,40.63
2022-12-08T05:54:38.143Z,50.40
2022-12-08T05:57:04.729Z,44.75
2022-12-08T05:59:31.168Z,52.42
2022-12-08T06:01:57.768Z,45.50
2022-12-08T06:04:24.388Z,51.40
2022-12-08T06:06:50.846Z,43.65
2022-12-08T06:09:17.291Z,48.10
2022-12-08T06:11:43.808Z,46.08
2022-12-08T06:14:11.933Z,49.45
2022-12-08T06:16:38.572Z,48.65
2022-12-08T06:19:05.138Z,47.72
2022-12-08T06:21:31.704Z,60.33
2022-12-08T06:23:58.189Z,45.80
2022-12-08T06:26:24.825Z,52.55
2022-12-08T06:28:51.733Z,49.38
2022-12-08T06:31:21.179Z,51.83
2022-12-08T06:33:47.937Z,52.75
2022-12-08T06:36:16.346Z,51.55
2022-12-08T06:38:43.968Z,44.25
2022-12-08T06:41:12.055Z,47.60
2022-12-08T06:43:38.733Z,48.78
2022-12-08T06:46:07.680Z,54.35
2022-12-08T06:48:34.385Z,44.80
2022-12-08T06:51:15.147Z,52.05
2022-12-08T06:53:42.460Z,52.90
2022-12-08T06:56:09.427Z,48.22
2022-12-08T06:58:36.076Z,49.28
2022-12-08T07:01:11.100Z,51.15
2022-12-08T07:03:38.907Z,52.45
2022-12-08T07:06:06.475Z,46.50
2022-12-08T07:08:34.116Z,45.47
2022-12-08T07:11:06.595Z,48.05
2022-12-08T07:13:33.047Z,56.22
2022-12-08T07:15:59.442Z,53.10
2022-12-08T07:18:25.903Z,48.20
2022-12-08T07:20:52.350Z,51.42
2022-12-08T07:23:19.033Z,47.60
2022-12-08T07:25:45.945Z,57.88
2022-12-08T07:28:18.120Z,44.90
2022-12-08T07:30:46.620Z,49.15
2022-12-08T07:33:13.664Z,48.60
2022-12-08T07:35:43.821Z,49.92
2022-12-08T07:38:20.598Z,53.10
2022-12-08T07:40:49.916Z,51.65
2022-12-08T07:43:16.441Z,50.90
2022-12-08T07:45:43.450Z,54.25
2022-12-08T07:48:13.206Z,47.90
2022-12-08T07:50:42.168Z,49.92
2022-12-08T07:53:09.688Z,46.10
2022-12-08T07:55:40.902Z,46.38
2022-12-08T07:58:10.757Z,55.17
2022-12-08T08:00:40.631Z,43.55
2022-12-08T08:03:13.239Z,49.35
2022-12-08T08:05:43.145Z,43.72
2022-12-08T08:08:14.182Z,45.85
2022-12-08T08:10:41.107Z,46.92
2022-12-08T08:13:11.051Z,45.00
2022-12-08T08:15:37.686Z,44.20
2022-12-08T08:18:07.627Z,42.17
2022-12-08T08:20:34.135Z,43.00
2022-12-08T08:23:07.893Z,49.55
2022-12-08T08:25:37.127Z,42.67
2022-12-08T08:28:05.997Z,46.78
2022-12-08T08:30:32.574Z,44.85
2022-12-08T08:33:08.462Z,51.00
2022-12-08T08:35:35.066Z,44.55
2022-12-08T08:38:01.895Z,47.10
2022-12-08T08:40:28.461Z,46.92
2022-12-08T08:42:55.200Z,51.10
2022-12-08T08:45:21.900Z,49.97
2022-12-08T08:47:48.422Z,43.40
2022-12-08T08:50:15.052Z,42.13
2022-12-08T08:52:41.743Z,50.53
2022-12-08T08:55:11.365Z,49.00
2022-12-08T08:57:38.238Z,42.53
2022-12-08T09:00:10.324Z,47.28
2022-12-08T09:02:38.436Z,47.50
2022-12-08T09:05:09.373Z,40.80
2022-12-08T09:07:36.388Z,40.55
2022-12-08T09:10:03.725Z,45.88
2022-12-08T09:12:30.888Z,45.15
2022-12-08T09:14:57.733Z,48.40
2022-12-08T09:17:27.707Z,53.58
2022-12-08T09:19:55.015Z,40.75
2022-12-08T09:22:30.643Z,43.05
2022-12-08T09:25:00.772Z,42.75
2022-12-08T09:27:31.231Z,40.38
2022-12-08T09:29:59.921Z,48.58
2022-12-08T09:32:32.889Z,47.85
2022-12-08T09:34:59.845Z,45.60
2022-12-08T09:37:26.721Z,47.65
2022-12-08T09:39:59.973Z,39.33
2022-12-08T09:43:07.539Z,43.85
2022-12-08T09:45:41.552Z,40.20
2022-12-08T09:48:19.308Z,46.53
2022-12-08T09:50:53.781Z,42.70
2022-12-08T09:53:32.082Z,43.97
2022-12-08T09:58:53.172Z,42.70
2022-12-08T10:01:23.510Z,43.13
2022-12-08T10:03:59.780Z,38.00
2022-12-08T10:06:47.907Z,43.85
2022-12-08T10:09:23.464Z,46.13
2022-12-08T10:12:21.934Z,39.97
2022-12-08T10:15:22.280Z,39.78
2022-12-08T10:17:59.016Z,42.13
2022-12-08T10:20:31.496Z,34.88
2022-12-08T10:23:34.491Z,39.60
2022-12-08T10:26:20.236Z,42.67
2022-12-08T10:28:56.425Z,38.97
2022-12-08T10:31:27.721Z,45.38
2022-12-08T10:34:14.104Z,39.67
2022-12-08T10:36:58.364Z,44.95
2022-12-08T10:39:35.231Z,35.40
2022-12-08T10:42:07.844Z,38.03
2022-12-08T10:44:50.100Z,31.73
2022-12-08T10:47:36.265Z,36.10
2022-12-08T10:50:07.660Z,34.78
2022-12-08T10:55:17.764Z,34.67
2022-12-08T10:57:44.550Z,35.75
2022-12-08T11:00:17.394Z,38.40
2022-12-08T11:03:00.241Z,28.35
2022-12-08T11:05:34.311Z,26.88
2022-12-08T11:08:03.452Z,32.22
2022-12-08T11:11:11.367Z,32.88
2022-12-08T11:13:43.964Z,29.27
2022-12-08T11:16:15.142Z,35.00
2022-12-08T11:18:44.747Z,31.75
2022-12-08T11:21:17.535Z,28.60
2022-12-08T11:23:52.023Z,27.98
2022-12-08T11:26:36.993Z,35.05
2022-12-08T11:29:04.555Z,29.75
2022-12-08T11:31:40.876Z,35.97
2022-12-08T11:34:19.593Z,32.83
2022-12-08T11:36:54.229Z,27.98
2022-12-08T11:39:22.346Z,37.75
2022-12-08T11:41:58.912Z,32.83
2022-12-08T11:44:58.907Z,36.17
2022-12-08T11:47:35.670Z,49.40
2022-12-08T11:50:34.119Z,38.55
2022-12-08T11:53:01.725Z,36.70
2022-12-08T11:55:49.917Z,34.45
2022-12-08T11:58:23.947Z,35.45
2022-12-08T12:00:51.017Z,29.63
2022-12-08T12:04:13.699Z,28.25
2022-12-08T12:07:19.488Z,26.55
2022-12-08T12:10:09.520Z,29.38
2022-12-08T12:13:20.834Z,25.75
2022-12-08T12:16:43.639Z,28.98
2022-12-08T12:19:32.648Z,27.02
2022-12-08T12:22:29.585Z,24.60
2022-12-08T12:25:02.757Z,26.95
2022-12-08T12:27:37.479Z,27.98
2022-12-08T12:30:25.374Z,27.60
2022-12-08T12:32:54.054Z,29.33
2022-12-08T12:35:43.700Z,29.88
2022-12-08T12:38:57.682Z,31.70
2022-12-08T12:41:47.358Z,29.30
2022-12-08T12:44:13.780Z,33.72
2022-12-08T12:46:42.212Z,38.40
2022-12-08T12:49:39.942Z,29.65
2022-12-08T12:52:34.147Z,30.02
2022-12-08T12:55:00.723Z,32.90
2022-12-08T12:57:40.126Z,30.95
2022-12-08T13:00:13.143Z,29.83
2022-12-08T13:02:49.829Z,28.50
2022-12-08T13:05:28.077Z,36.15
2022-12-08T13:07:58.363Z,27.77
2022-12-08T13:10:35.094Z,27.98
2022-12-08T13:13:10.690Z,32.22
2022-12-08T13:15:40.041Z,26.92
2022-12-08T13:18:16.482Z,29.48
2022-12-08T13:20:48.145Z,33.28
2022-12-08T13:23:37.258Z,30.63
2022-12-08T13:26:20.171Z,32.03
2022-12-08T13:28:58.779Z,30.42
2022-12-08T13:31:50.657Z,37.13
2022-12-08T13:34:57.953Z,31.63
2022-12-08T13:37:53.945Z,32.40
2022-12-08T13:40:32.139Z,37.03
2022-12-08T13:43:25.689Z,35.58
2022-12-08T13:50:23.075Z,36.67
2022-12-08T13:57:28.835Z,35.75
2022-12-08T14:00:04.781Z,35.10
2022-12-08T14:02:47.053Z,38.92
2022-12-08T14:05:18.633Z,40.78
2022-12-08T14:07:47.818Z,36.35
2022-12-08T14:10:40.698Z,35.65
2022-12-08T14:13:12.186Z,33.10
2022-12-08T14:15:40.248Z,33.67
2022-12-08T14:18:23.442Z,38.20
2022-12-08T14:23:50.375Z,30.23
2022-12-08T14:26:17.931Z,39.58
2022-12-08T14:28:45.167Z,34.58
2022-12-08T14:31:14.121Z,28.52
2022-12-08T14:33:41.347Z,32.08
2022-12-08T14:36:10.307Z,32.97
2022-12-08T14:38:36.969Z,26.88
2022-12-08T14:41:08.928Z,33.33
2022-12-08T14:43:36.306Z,33.10
2022-12-08T14:46:21.082Z,28.85
2022-12-08T14:48:47.769Z,30.27
2022-12-08T14:51:23.215Z,24.15
2022-12-08T14:53:58.792Z,25.52
2022-12-08T14:56:52.325Z,23.92
2022-12-08T14:59:32.469Z,27.35
2022-12-08T15:02:29.272Z,23.90
2022-12-08T15:04:58.699Z,23.65
2022-12-08T15:07:30.302Z,20.83
2022-12-08T15:13:22.161Z,25.67
2022-12-08T15:15:51.883Z,25.23
2022-12-08T15:18:38.042Z,25.20
2022-12-08T15:21:09.158Z,30.48
2022-12-08T15:23:48.472Z,24.38
2022-12-08T15:26:23.973Z,28.48
2022-12-08T15:28:58.412Z,24.15
2022-12-08T15:31:25.116Z,21.05
2022-12-08T15:33:51.928Z,22.70
2022-12-08T15:36:21.897Z,25.95
2022-12-08T15:38:48.520Z,25.88
2022-12-08T15:41:15.489Z,31.42
2022-12-08T15:43:45.422Z,28.83
2022-12-08T15:46:16.803Z,23.75
2022-12-08T15:48:46.851Z,23.27
2022-12-08T15:52:11.068Z,24.45
2022-12-08T15:54:44.032Z,28.00
2022-12-08T15:58:17.103Z,23.05
2022-12-08T16:00:50.417Z,26.73
2022-12-08T16:09:17.291Z,28.52
2022-12-08T16:12:07.876Z,25.20
2022-12-08T16:17:22.704Z,24.17
2022-12-08T16:19:49.482Z,31.05
2022-12-08T16:25:18.367Z,28.55
2022-12-08T16:28:17.247Z,26.05
2022-12-08T16:30:33.065Z,24.88
2022-12-08T16:32:59.665Z,31.08
2022-12-08T16:35:26.189Z,35.33
2022-12-08T16:37:55.364Z,31.48
2022-12-08T16:40:25.069Z,39.95
2022-12-08T16:42:51.763Z,35.95
2022-12-08T16:45:21.179Z,34.33
2022-12-08T16:47:56.673Z,30.90
2022-12-08T16:50:29.398Z,28.80
2022-12-08T16:53:07.398Z,28.80
2022-12-08T16:55:35.281Z,27.42
2022-12-08T16:58:07.918Z,25.67
2022-12-08T17:00:38.247Z,26.70
2022-12-08T17:03:11.769Z,27.73
2022-12-08T17:05:52.493Z,31.00
2022-12-08T17:08:19.327Z,31.83
2022-12-08T17:11:06.150Z,31.05
2022-12-08T17:13:33.316Z,31.80
2022-12-08T17:16:00.083Z,32.42
2022-12-08T17:18:30.139Z,28.38
2022-12-08T17:20:56.944Z,30.95
2022-12-08T17:23:23.637Z,30.65
2022-12-08T17:26:00.904Z,27.35
2022-12-08T17:28:58.443Z,28.65
2022-12-08T17:31:16.147Z,31.02
2022-12-08T17:33:42.966Z,32.88
2022-12-08T17:36:13.712Z,28.85
2022-12-08T17:38:40.577Z,21.95
2022-12-08T17:41:08.906Z,30.70
2022-12-08T17:43:36.230Z,29.90
2022-12-08T17:46:03.246Z,31.40
2022-12-08T17:48:30.548Z,34.45
2022-12-08T17:50:57.183Z,29.08
2022-12-08T17:53:23.845Z,32.33
2022-12-08T17:55:55.538Z,32.72
2022-12-08T17:58:23.202Z,32.22
2022-12-08T18:00:50.891Z,27.17
2022-12-08T18:03:19.189Z,30.30
2022-12-08T18:05:49.519Z,31.80
2022-12-08T18:10:59.318Z,35.78
2022-12-08T18:13:26.142Z,34.00
2022-12-08T18:16:06.392Z,33.10
2022-12-08T18:18:34.774Z,34.50
2022-12-08T18:21:04.557Z,37.67
2022-12-08T18:23:33.894Z,36.53
2022-12-08T18:26:00.653Z,35.47
2022-12-08T18:28:27.384Z,38.60
2022-12-08T18:30:54.058Z,42.58
2022-12-08T18:33:20.845Z,37.28
2022-12-08T18:35:47.449Z,36.38
2022-12-08T18:38:17.266Z,39.22
2022-12-08T18:40:43.890Z,45.28
2022-12-08T18:43:10.655Z,41.03
2022-12-08T18:45:39.499Z,41.88
2022-12-08T18:48:07.093Z,40.13
2022-12-08T18:50:33.871Z,42.10
2022-12-08T18:53:00.485Z,43.65
2022-12-08T18:55:27.081Z,48.58
2022-12-08T18:57:53.796Z,42.28
2022-12-08T19:00:21.070Z,41.03
2022-12-08T19:02:47.672Z,41.35
2022-12-08T19:05:15.427Z,40.80
2022-12-08T19:07:42.862Z,41.63
2022-12-08T19:10:10.378Z,40.90
2022-12-08T19:12:37.148Z,43.08
2022-12-08T19:15:04.216Z,40.65
2022-12-08T19:17:31.014Z,41.90
2022-12-08T19:19:57.459Z,40.42
2022-12-08T19:22:23.994Z,53.83
2022-12-08T19:24:50.465Z,47.28
2022-12-08T19:27:17.001Z,45.97
2022-12-08T19:29:43.424Z,48.40
2022-12-08T19:32:09.873Z,44.58
2022-12-08T19:34:36.413Z,43.08
2022-12-08T19:37:03.070Z,43.80
2022-12-08T19:39:48.116Z,42.30
2022-12-08T19:42:35.807Z,40.67
2022-12-08T19:45:15.333Z,41.25
2022-12-08T19:47:42.365Z,41.40
2022-12-08T19:50:33.250Z,44.17
2022-12-08T19:53:00.782Z,41.43
2022-12-08T19:55:27.455Z,42.58
2022-12-08T19:57:54.649Z,46.35
2022-12-08T20:00:21.315Z,40.08
2022-12-08T20:02:47.935Z,38.55
2022-12-08T20:05:15.117Z,42.63
2022-12-08T20:07:41.956Z,40.72
2022-12-08T20:10:16.036Z,43.20
2022-12-08T20:12:42.583Z,41.95
2022-12-08T20:15:10.217Z,39.33
2022-12-08T20:17:38.215Z,41.22
2022-12-08T20:20:07.709Z,42.85
2022-12-08T20:22:34.358Z,42.15
2022-12-08T20:25:01.249Z,39.83
2022-12-08T20:27:28.955Z,42.75
2022-12-08T20:29:55.388Z,39.15
2022-12-08T20:32:21.861Z,48.97
2022-12-08T20:34:48.283Z,41.80
2022-12-08T20:37:14.760Z,39.10
2022-12-08T20:39:41.320Z,40.83
2022-12-08T20:42:12.764Z,44.65
2022-12-08T20:44:43.270Z,37.10
2022-12-08T20:47:11.146Z,29.23
2022-12-08T20:49:37.852Z,36.45
2022-12-08T20:52:04.648Z,40.10
2022-12-08T20:54:31.145Z,42.33
2022-12-08T20:56:57.826Z,43.63
2022-12-08T20:59:26.355Z,39.83
2022-12-08T21:01:53.930Z,38.78
2022-12-08T21:04:20.801Z,38.88
2022-12-08T21:06:47.795Z,36.95
2022-12-08T21:09:14.511Z,46.22
2022-12-08T21:11:42.461Z,37.22
2022-12-08T21:14:09.110Z,38.40
2022-12-08T21:16:35.878Z,38.92
2022-12-08T21:19:02.784Z,39.22
2022-12-08T21:21:29.496Z,39.80
2022-12-08T21:23:56.165Z,41.53
2022-12-08T21:26:26.011Z,41.28
2022-12-08T21:28:54.717Z,40.65
2022-12-08T21:31:21.934Z,41.55
2022-12-08T21:33:49.180Z,42.55
2022-12-08T21:36:19.152Z,44.47
2022-12-08T21:38:46.917Z,40.92
2022-12-08T21:41:36.932Z,43.63
2022-12-08T21:44:04.811Z,41.65
2022-12-08T21:46:31.694Z,46.35
2022-12-08T21:48:58.326Z,40.28
2022-12-08T21:51:25.176Z,46.03
2022-12-08T21:53:51.707Z,42.30
2022-12-08T21:56:18.365Z,42.28
2022-12-08T21:58:44.964Z,42.00
2022-12-08T22:01:12.110Z,43.00
2022-12-08T22:03:39.894Z,43.92
2022-12-08T22:06:12.359Z,41.72
2022-12-08T22:08:39.360Z,41.00
2022-12-08T22:11:08.494Z,37.97
2022-12-08T22:13:36.747Z,39.92
2022-12-08T22:16:06.123Z,42.92
2022-12-08T22:18:34.267Z,37.63
2022-12-08T22:21:01.219Z,40.60
2022-12-08T22:23:28.492Z,41.67
2022-12-08T22:26:00.084Z,41.10
2022-12-08T22:28:27.993Z,48.17
2022-12-08T22:30:54.475Z,38.25
2022-12-08T22:33:21.207Z,38.38
2022-12-08T22:36:08.086Z,40.03
2022-12-08T22:38:36.431Z,43.28
2022-12-08T22:41:05.213Z,43.05
2022-12-08T22:43:32.893Z,44.58
2022-12-08T22:45:59.875Z,43.05
2022-12-08T22:48:26.382Z,42.20
2022-12-08T22:50:59.667Z,40.15
2022-12-08T22:53:26.380Z,44.67
2022-12-08T22:55:52.904Z,41.92
2022-12-08T22:58:19.962Z,42.42
2022-12-08T23:00:46.496Z,39.40
2022-12-08T23:03:13.090Z,40.80
2022-12-08T23:05:40.593Z,44.60
2022-12-08T23:08:08.806Z,41.88
2022-12-08T23:10:35.838Z,46.38
2022-12-08T23:13:04.157Z,42.80
2022-12-08T23:15:31.199Z,45.20
2022-12-08T23:17:57.995Z,38.47
2022-12-08T23:20:24.647Z,41.22
2022-12-08T23:22:51.199Z,43.03
2022-12-08T23:25:18.560Z,44.28
2022-12-08T23:27:45.684Z,48.95
2022-12-08T23:30:12.683Z,55.10
2022-12-08T23:32:39.312Z,52.97
2022-12-08T23:35:06.725Z,50.35
2022-12-08T23:37:33.170Z,51.45
2022-12-08T23:39:59.626Z,50.22
2022-12-08T23:42:26.427Z,51.60
2022-12-08T23:44:52.925Z,52.55
2022-12-08T23:47:19.402Z,56.65
2022-12-08T23:49:45.922Z,57.05
2022-12-08T23:52:13.767Z,57.13
2022-12-08T23:54:40.504Z,57.97
2022-12-08T23:57:07.867Z,55.33
2022-12-08T23:59:34.315Z,57.45
